Weather at Bakshi Ka Talab Air Force Station

Public forecast

Using degrees Celsius for public forecast. Weather courtesy of forecast.io.

Closest aviation weather report (METAR) to Bakshi Ka Talab Air Force Station

Closest report is Chaudhary Charan Singh International Airport, 13.7 nm (25.3 km) S. Retrieved 2020/09/19 11:30 UTC (21 minutes ago):

VILK 191130Z 05005KT 4000 HZ SCT020 SCT025 FEW030CB 33/26 Q1000 NOSIG

Closest aviation forecast (TAF) to Bakshi Ka Talab Air Force Station

Closest forecast is Chaudhary Charan Singh International Airport, 13.7 nm (25.3 km) S. Retrieved 2020/09/19 06:52 UTC (5 hours ago):

TAF VILK 190500Z 1906/2012 13006KT 3000 HZ SCT020 OVC100 TEMPO 1909/1913 FEW030CB OVC090 BECMG 1913/1915 VRB02KT 4000 BR HZ SCT025 BKN100 BECMG 2000/2002 3000 BR TEMPO 2005/2009 FEW030CB OVC080 BECMG 2009/2011 11006KT 5000 HZ SCT025 BKN100